Time;durP1;ratioP1;P1;durP2;ratioP2;P2;SDS_P1;SDS_P2;PMS_P1;PMS_P2;Temp;Humidity;BMP_temperature;BMP_pressure;BME280_temperature;BME280_humidity;BME280_pressure;Samples;Min_cycle;Max_cycle;Signal;HPM_P1;HPM_P2
2021/06/30 00:02:30;;;;;;;30.35;16.17;;;;;;;15.70;91.05;94361.11;1746510;81;21056;-56
2021/06/30 00:04:57;;;;;;;28.15;15.38;;;;;;;15.65;91.20;94353.48;1734203;81;21408;-55
2021/06/30 00:07:24;;;;;;;22.87;13.68;;;;;;;15.62;91.39;94352.46;1722306;81;21120;-55
2021/06/30 00:09:51;;;;;;;22.35;10.65;;;;;;;15.63;91.41;94359.53;1724449;82;20990;-54
2021/06/30 00:12:18;;;;;;;18.17;10.95;;;;;;;15.65;91.37;94361.19;1727724;82;21169;-55
2021/06/30 00:14:46;;;;;;;22.70;11.20;;;;;;;15.64;91.21;94355.50;1728504;82;20946;-55
2021/06/30 00:17:12;;;;;;;18.77;10.48;;;;;;;15.61;91.21;94350.94;1731472;81;21071;-55
2021/06/30 00:19:41;;;;;;;14.18;9.05;;;;;;;15.62;91.31;94358.01;1735892;81;21108;-55
2021/06/30 00:22:07;;;;;;;18.12;10.82;;;;;;;15.63;91.37;94358.75;1740031;81;21432;-55
2021/06/30 00:24:34;;;;;;;20.77;10.28;;;;;;;15.63;91.59;94353.98;1733248;81;21150;-55
2021/06/30 00:27:03;;;;;;;20.50;11.25;;;;;;;15.65;91.83;94352.87;1734833;81;21022;-56
2021/06/30 00:29:30;;;;;;;13.95;10.13;;;;;;;15.69;91.97;94356.18;1746076;82;21434;-56
2021/06/30 00:31:57;;;;;;;15.90;9.35;;;;;;;15.69;91.74;94349.89;1732448;81;21430;-55
2021/06/30 00:34:24;;;;;;;15.90;9.23;;;;;;;15.68;91.67;94351.88;1732890;81;20955;-56
2021/06/30 00:36:50;;;;;;;16.73;9.38;;;;;;;15.70;91.53;94352.16;1746662;82;21158;-55
2021/06/30 00:39:20;;;;;;;14.25;8.98;;;;;;;15.68;91.32;94352.50;1745851;82;20934;-55
2021/06/30 00:41:46;;;;;;;14.33;8.48;;;;;;;15.63;91.23;94352.59;1739762;82;20947;-56
2021/06/30 00:44:13;;;;;;;17.32;8.90;;;;;;;15.56;91.28;94350.88;1725723;82;21058;-55
2021/06/30 00:46:40;;;;;;;18.98;9.08;;;;;;;15.53;91.39;94352.61;1739289;82;20967;-56
2021/06/30 00:49:08;;;;;;;19.75;9.68;;;;;;;15.52;91.41;94355.88;1746559;82;21419;-55
2021/06/30 00:51:35;;;;;;;21.25;8.73;;;;;;;15.48;91.59;94347.77;1736127;82;20997;-55
2021/06/30 00:54:01;;;;;;;17.87;9.13;;;;;;;15.51;91.96;94348.17;1725749;81;21053;-55
2021/06/30 00:56:28;;;;;;;21.70;9.50;;;;;;;15.56;91.89;94353.65;1722921;82;21477;-55
2021/06/30 00:58:57;;;;;;;19.07;9.53;;;;;;;15.55;91.70;94354.27;1729579;82;21530;-56
2021/06/30 01:01:26;;;;;;;17.20;9.00;;;;;;;15.57;91.63;94352.40;1738507;81;21208;-56
2021/06/30 01:03:53;;;;;;;17.25;9.68;;;;;;;15.55;91.61;94352.87;1731973;81;21595;-56
2021/06/30 01:06:21;;;;;;;10.98;8.18;;;;;;;15.54;91.79;94343.03;1725032;82;20955;-55
2021/06/30 01:08:50;;;;;;;19.95;9.00;;;;;;;15.56;92.33;94345.33;1727731;81;21009;-54
2021/06/30 01:11:17;;;;;;;14.40;8.60;;;;;;;15.52;91.71;94344.15;1730075;82;21427;-55
2021/06/30 01:13:44;;;;;;;15.32;8.65;;;;;;;15.41;91.61;94339.89;1731770;81;21156;-55
2021/06/30 01:16:12;;;;;;;27.13;9.38;;;;;;;15.36;91.67;94345.37;1726621;81;21465;-55
2021/06/30 01:18:39;;;;;;;16.27;8.93;;;;;;;15.34;91.87;94345.84;1720103;82;21175;-56
2021/06/30 01:21:09;;;;;;;13.50;8.98;;;;;;;15.33;91.85;94333.23;1721908;82;21491;-55
2021/06/30 01:23:37;;;;;;;23.52;9.48;;;;;;;15.33;92.00;94338.78;1725018;81;20934;-55
2021/06/30 01:26:04;;;;;;;16.07;9.98;;;;;;;15.35;92.09;94334.89;1705500;83;21151;-56
2021/06/30 01:28:31;;;;;;;18.65;9.88;;;;;;;15.39;91.96;94336.08;1722215;82;21663;-55
2021/06/30 01:30:58;;;;;;;17.23;11.03;;;;;;;15.40;91.99;94327.25;1727053;82;20967;-56
2021/06/30 01:33:25;;;;;;;13.55;11.15;;;;;;;15.42;92.14;94330.33;1738400;82;21576;-56
2021/06/30 01:35:52;;;;;;;20.70;11.03;;;;;;;15.44;92.21;94324.27;1727611;82;21045;-55
2021/06/30 01:38:21;;;;;;;20.32;11.18;;;;;;;15.42;92.13;94313.69;1746572;81;21817;-55
2021/06/30 01:40:49;;;;;;;17.02;10.03;;;;;;;15.40;92.30;94320.33;1744849;81;20955;-55
2021/06/30 01:43:16;;;;;;;14.73;9.93;;;;;;;15.42;92.56;94321.23;1721433;81;21109;-55
2021/06/30 01:45:44;;;;;;;25.08;16.95;;;;;;;15.43;92.65;94324.91;1740188;81;21034;-55
2021/06/30 01:48:11;;;;;;;52.88;35.35;;;;;;;15.43;92.45;94327.69;1724614;81;21002;-55
2021/06/30 01:50:38;;;;;;;40.10;25.15;;;;;;;15.40;92.14;94329.28;1736312;82;22297;-54
2021/06/30 01:53:06;;;;;;;38.33;30.15;;;;;;;15.36;91.86;94317.01;1725481;81;21477;-56
2021/06/30 01:55:35;;;;;;;48.87;35.75;;;;;;;15.34;91.81;94318.13;1727772;81;21097;-55
2021/06/30 01:58:02;;;;;;;28.62;17.55;;;;;;;15.35;91.67;94318.27;1741296;81;21073;-55
2021/06/30 02:00:29;;;;;;;26.48;16.25;;;;;;;15.33;91.48;94317.98;1722435;82;21003;-55
2021/06/30 02:02:56;;;;;;;41.13;22.07;;;;;;;15.30;91.41;94318.97;1740390;82;21138;-55
2021/06/30 02:05:22;;;;;;;34.50;23.22;;;;;;;15.28;91.35;94315.89;1731525;81;21022;-54
2021/06/30 02:07:52;;;;;;;27.48;15.32;;;;;;;15.27;91.35;94311.61;1742496;81;20962;-55
2021/06/30 02:10:21;;;;;;;27.90;11.08;;;;;;;15.26;91.46;94306.54;1730116;81;21456;-55
2021/06/30 02:12:47;;;;;;;31.80;11.10;;;;;;;15.20;91.34;94312.02;1730103;81;21132;-55
2021/06/30 02:15:26;;;;;;;19.50;9.68;;;;;;;15.14;91.09;94313.97;1732274;81;21128;-54
2021/06/30 02:17:56;;;;;;;15.78;8.80;;;;;;;15.07;91.09;94314.40;1742262;81;20990;-56
2021/06/30 02:20:22;;;;;;;21.00;9.35;;;;;;;15.01;91.22;94319.73;1717334;82;21092;-56
2021/06/30 02:22:49;;;;;;;29.37;10.25;;;;;;;14.94;91.26;94316.75;1737286;81;20958;-56
2021/06/30 02:25:28;;;;;;;31.68;9.10;;;;;;;14.90;91.49;94325.91;1722177;82;21001;-55
2021/06/30 02:27:54;;;;;;;24.23;9.08;;;;;;;14.84;91.58;94322.28;1720358;81;21096;-56
2021/06/30 02:30:25;;;;;;;27.22;9.48;;;;;;;14.79;91.61;94323.62;1723802;82;21443;-55
2021/06/30 02:32:52;;;;;;;17.75;9.33;;;;;;;14.75;92.10;94327.97;1725137;82;21083;-56
2021/06/30 02:35:22;;;;;;;27.42;10.85;;;;;;;14.78;92.14;94327.00;1728041;82;21451;-56
2021/06/30 02:37:50;;;;;;;19.85;8.90;;;;;;;14.75;91.99;94325.20;1724550;82;20947;-55
2021/06/30 02:40:18;;;;;;;25.45;8.63;;;;;;;14.74;92.01;94333.37;1725781;81;21088;-55
2021/06/30 02:42:45;;;;;;;18.82;8.93;;;;;;;14.72;92.01;94337.86;1714880;81;21472;-55
2021/06/30 02:45:14;;;;;;;16.80;8.75;;;;;;;14.67;92.00;94338.55;1726895;83;21050;-57
2021/06/30 02:47:42;;;;;;;27.82;9.60;;;;;;;14.62;92.34;94324.77;1736348;82;21026;-56
2021/06/30 02:50:13;;;;;;;29.82;11.22;;;;;;;14.64;92.60;94322.27;1740788;81;21018;-56
2021/06/30 02:52:42;;;;;;;33.10;9.30;;;;;;;14.65;92.61;94317.51;1744062;81;20962;-55
2021/06/30 02:55:09;;;;;;;16.85;7.78;;;;;;;14.69;92.63;94319.45;1729944;81;20987;-55
2021/06/30 02:57:36;;;;;;;22.07;8.08;;;;;;;14.71;92.77;94317.73;1717392;82;21049;-59
2021/06/30 03:00:08;;;;;;;26.40;8.80;;;;;;;14.75;92.52;94321.05;1726831;82;21029;-57
2021/06/30 03:02:35;;;;;;;14.23;8.45;;;;;;;14.75;92.32;94316.89;1722466;82;21047;-57
2021/06/30 03:05:02;;;;;;;16.87;9.00;;;;;;;14.74;92.42;94314.59;1728185;82;21078;-58
2021/06/30 03:07:29;;;;;;;18.40;9.20;;;;;;;14.77;92.48;94315.78;1728110;81;21080;-58
2021/06/30 03:09:55;;;;;;;23.45;8.98;;;;;;;14.82;92.39;94317.85;1726587;82;21049;-58
2021/06/30 03:12:21;;;;;;;35.78;12.18;;;;;;;14.87;92.12;94319.95;1735113;81;21470;-60
2021/06/30 03:14:50;;;;;;;31.57;10.80;;;;;;;14.89;92.11;94318.84;1724459;81;20999;-57
2021/06/30 03:17:18;;;;;;;46.63;11.55;;;;;;;14.97;92.47;94320.58;1731113;81;20934;-57
2021/06/30 03:19:45;;;;;;;28.67;9.70;;;;;;;15.06;92.16;94317.64;1735248;81;20991;-57
2021/06/30 03:22:12;;;;;;;24.80;8.70;;;;;;;15.09;91.80;94322.98;1746764;82;21042;-57
2021/06/30 03:24:38;;;;;;;19.32;8.88;;;;;;;15.08;91.36;94328.39;1738765;82;21446;-56
2021/06/30 03:27:05;;;;;;;27.00;10.08;;;;;;;15.06;91.20;94326.73;1737696;81;21122;-55
2021/06/30 03:29:34;;;;;;;21.73;10.03;;;;;;;15.06;91.31;94325.34;1738210;81;21079;-56
2021/06/30 03:32:01;;;;;;;12.47;8.03;;;;;;;15.10;91.27;94327.28;1740960;81;20942;-55
2021/06/30 03:34:28;;;;;;;18.30;9.10;;;;;;;15.14;91.13;94315.99;1735153;81;20995;-56
2021/06/30 03:36:54;;;;;;;21.75;8.13;;;;;;;15.17;90.92;94314.37;1722878;82;21477;-55
2021/06/30 03:39:21;;;;;;;15.28;8.88;;;;;;;15.23;90.95;94319.38;1719516;82;20930;-56
2021/06/30 03:41:48;;;;;;;15.00;9.13;;;;;;;15.29;90.58;94317.45;1731100;81;21868;-55
2021/06/30 03:44:15;;;;;;;17.65;8.73;;;;;;;15.31;90.37;94320.49;1738789;81;20978;-56
2021/06/30 03:46:43;;;;;;;12.88;7.95;;;;;;;15.36;90.30;94321.80;1725770;81;20950;-55
2021/06/30 03:49:10;;;;;;;23.83;9.18;;;;;;;15.44;90.36;94325.66;1716216;82;20964;-56
2021/06/30 03:51:36;;;;;;;34.92;13.60;;;;;;;15.45;90.00;94316.87;1733238;81;20997;-56
2021/06/30 03:54:08;;;;;;;33.13;11.45;;;;;;;15.45;90.07;94318.25;1741231;82;21815;-56
2021/06/30 03:56:34;;;;;;;29.85;12.75;;;;;;;15.49;90.06;94315.25;1726394;81;20946;-56
2021/06/30 03:59:01;;;;;;;28.38;9.35;;;;;;;15.51;90.32;94320.45;1741271;82;21462;-56
2021/06/30 04:01:29;;;;;;;20.45;8.40;;;;;;;15.58;90.61;94311.69;1737325;81;21456;-55
2021/06/30 04:03:59;;;;;;;17.70;7.53;;;;;;;15.65;90.75;94305.72;1746629;82;21039;-56
2021/06/30 04:06:24;;;;;;;10.90;7.30;;;;;;;15.69;90.53;94306.90;1726714;81;21924;-56
2021/06/30 04:08:52;;;;;;;32.98;10.93;;;;;;;15.69;90.46;94304.12;1735099;81;21506;-56
2021/06/30 04:11:19;;;;;;;30.52;9.73;;;;;;;15.69;90.61;94309.03;1735537;81;21071;-55
2021/06/30 04:13:46;;;;;;;31.30;11.00;;;;;;;15.73;90.59;94313.73;1722419;82;21509;-56
2021/06/30 04:16:13;;;;;;;45.40;11.38;;;;;;;15.76;90.49;94311.35;1745388;82;21052;-56
2021/06/30 04:18:39;;;;;;;28.02;10.00;;;;;;;15.81;90.64;94311.27;1698448;83;21129;-55
2021/06/30 04:21:06;;;;;;;25.48;11.03;;;;;;;15.90;90.55;94313.89;1715498;81;20990;-55
2021/06/30 04:23:34;;;;;;;21.30;11.22;;;;;;;15.92;90.23;94310.00;1728235;81;20995;-56
2021/06/30 04:26:03;;;;;;;26.37;10.98;;;;;;;15.94;90.23;94315.81;1711898;82;20971;-56
2021/06/30 04:28:31;;;;;;;20.85;11.18;;;;;;;15.99;90.22;94324.80;1737925;81;20952;-56
2021/06/30 04:30:58;;;;;;;28.98;15.65;;;;;;;16.02;90.20;94321.81;1736367;82;21049;-56
2021/06/30 04:33:25;;;;;;;36.10;15.03;;;;;;;16.04;90.06;94317.91;1725713;82;21011;-56
2021/06/30 04:35:52;;;;;;;29.40;11.73;;;;;;;16.04;90.16;94313.75;1733401;82;21085;-56
2021/06/30 04:38:20;;;;;;;27.07;11.83;;;;;;;16.06;90.06;94305.70;1732651;81;21463;-56
2021/06/30 04:40:46;;;;;;;21.55;11.45;;;;;;;16.11;90.37;94298.67;1733404;81;21010;-56
2021/06/30 04:43:13;;;;;;;28.30;13.13;;;;;;;16.22;90.45;94289.80;1718976;81;21737;-56
2021/06/30 04:45:41;;;;;;;35.20;13.93;;;;;;;16.28;89.93;94293.36;1734104;81;21481;-56
2021/06/30 04:48:08;;;;;;;32.10;14.23;;;;;;;16.30;89.89;94288.84;1738225;81;21104;-57
2021/06/30 04:50:34;;;;;;;35.45;12.78;;;;;;;16.38;89.68;94286.41;1745411;81;21046;-56
2021/06/30 04:53:03;;;;;;;24.12;11.57;;;;;;;16.50;89.80;94289.36;1734680;81;21076;-56
2021/06/30 04:55:29;;;;;;;26.85;12.68;;;;;;;16.65;89.73;94285.18;1722680;82;21265;-56
2021/06/30 04:57:57;;;;;;;24.67;11.03;;;;;;;16.81;89.45;94289.29;1738041;82;20938;-58
2021/06/30 05:00:25;;;;;;;28.62;13.03;;;;;;;16.91;88.71;94290.61;1732788;82;21041;-55
2021/06/30 05:02:52;;;;;;;25.97;10.50;;;;;;;16.95;88.28;94288.35;1724463;82;21044;-55
2021/06/30 05:05:19;;;;;;;13.78;9.58;;;;;;;17.00;88.14;94285.59;1737087;82;20962;-55
2021/06/30 05:07:45;;;;;;;14.65;9.43;;;;;;;17.04;88.04;94271.44;1724595;82;21538;-55
2021/06/30 05:10:12;;;;;;;18.32;9.05;;;;;;;17.09;88.06;94269.33;1725272;81;21042;-55
2021/06/30 05:12:40;;;;;;;12.53;8.38;;;;;;;17.15;88.11;94256.98;1723851;82;21490;-56
2021/06/30 05:15:10;;;;;;;14.80;9.15;;;;;;;17.28;88.22;94250.30;1728492;82;20975;-55
2021/06/30 05:17:37;;;;;;;18.77;10.93;;;;;;;17.45;87.80;94246.20;1727497;81;21510;-55
2021/06/30 05:20:05;;;;;;;21.82;10.28;;;;;;;17.63;87.56;94233.20;1691776;82;21149;-57
2021/06/30 05:22:32;;;;;;;21.25;11.70;;;;;;;17.84;86.99;94249.78;1732256;81;21038;-55
2021/06/30 05:25:00;;;;;;;20.37;10.82;;;;;;;17.99;86.32;94242.69;1711104;82;21203;-56
2021/06/30 05:27:27;;;;;;;15.08;9.63;;;;;;;18.15;85.94;94240.53;1722812;82;20968;-53
2021/06/30 05:29:54;;;;;;;14.98;8.73;;;;;;;18.26;85.10;94241.27;1715939;80;21530;-56
2021/06/30 05:32:20;;;;;;;21.57;8.68;;;;;;;18.37;85.01;94230.77;1721162;80;21816;-57
2021/06/30 05:34:48;;;;;;;17.17;9.23;;;;;;;18.52;84.50;94241.00;1745831;80;21073;-55
2021/06/30 05:37:15;;;;;;;27.65;11.75;;;;;;;18.68;84.09;94236.02;1743873;80;21667;-56
2021/06/30 05:39:43;;;;;;;17.87;9.43;;;;;;;18.84;83.63;94240.13;1753173;80;21144;-56
2021/06/30 05:42:10;;;;;;;16.02;9.13;;;;;;;19.01;83.06;94245.66;1746385;80;21184;-56
2021/06/30 05:44:37;;;;;;;21.27;9.03;;;;;;;19.17;82.48;94251.18;1743973;80;21072;-57
2021/06/30 05:47:04;;;;;;;14.80;8.68;;;;;;;19.29;81.41;94239.33;1744044;80;21456;-56
2021/06/30 05:49:30;;;;;;;13.08;8.88;;;;;;;19.38;80.93;94230.67;1738692;80;21105;-57
2021/06/30 05:51:57;;;;;;;35.30;9.25;;;;;;;19.45;80.56;94229.48;1757826;80;21248;-58
2021/06/30 05:54:24;;;;;;;13.00;7.58;;;;;;;19.56;80.17;94221.67;1746573;79;21080;-56
2021/06/30 05:56:51;;;;;;;13.00;7.62;;;;;;;19.62;79.77;94214.78;1750642;80;21053;-57
2021/06/30 05:59:19;;;;;;;10.00;6.92;;;;;;;19.73;79.77;94213.30;1732318;80;21113;-56
2021/06/30 06:01:46;;;;;;;15.30;8.15;;;;;;;19.85;79.28;94217.52;1732838;80;21053;-55
2021/06/30 06:04:13;;;;;;;13.22;7.40;;;;;;;19.96;78.59;94218.07;1730937;80;21033;-54
2021/06/30 06:06:40;;;;;;;12.95;7.50;;;;;;;20.03;77.73;94229.47;1738945;80;21084;-57
2021/06/30 06:09:06;;;;;;;6.92;6.17;;;;;;;20.09;77.56;94224.58;1736687;80;21139;-58
2021/06/30 06:11:34;;;;;;;14.13;6.80;;;;;;;20.16;77.16;94222.63;1748024;79;21069;-57
2021/06/30 06:14:01;;;;;;;10.30;6.75;;;;;;;20.25;77.08;94229.27;1749085;79;21095;-55
2021/06/30 06:16:28;;;;;;;9.85;7.60;;;;;;;20.38;77.02;94234.99;1679983;82;21017;-54
2021/06/30 06:18:55;;;;;;;15.95;7.35;;;;;;;20.50;76.57;94234.98;1729297;80;21045;-56
2021/06/30 06:21:21;;;;;;;9.68;6.80;;;;;;;20.60;76.23;94231.97;1744638;80;22215;-56
2021/06/30 06:23:48;;;;;;;11.50;7.53;;;;;;;20.72;75.88;94232.72;1727495;81;21034;-56
2021/06/30 06:26:16;;;;;;;17.05;7.97;;;;;;;20.86;75.79;94233.61;1734118;80;21014;-55
2021/06/30 06:28:43;;;;;;;13.10;7.25;;;;;;;21.03;75.70;94227.17;1754117;80;21043;-57
2021/06/30 06:31:14;;;;;;;17.52;7.37;;;;;;;21.17;74.81;94217.59;1721058;80;21133;-58
2021/06/30 06:33:39;;;;;;;9.70;6.20;;;;;;;21.32;74.43;94222.11;1732801;80;21057;-55
2021/06/30 06:36:08;;;;;;;14.87;7.35;;;;;;;21.46;73.98;94223.70;1736341;80;21017;-63
2021/06/30 06:38:37;;;;;;;14.63;7.30;;;;;;;21.60;73.50;94222.46;1720822;80;20997;-60
2021/06/30 06:41:05;;;;;;;9.03;7.12;;;;;;;21.73;72.81;94218.36;1735575;79;21069;-59
2021/06/30 06:43:34;;;;;;;11.05;6.95;;;;;;;21.84;73.07;94211.20;1751253;80;21040;-57
2021/06/30 06:46:02;;;;;;;12.85;6.80;;;;;;;21.99;72.87;94201.02;1749495;80;21143;-61
2021/06/30 06:48:28;;;;;;;10.93;8.28;;;;;;;22.15;72.46;94194.38;1744164;80;21057;-59
2021/06/30 06:50:56;;;;;;;7.40;6.30;;;;;;;22.32;72.18;94192.78;1747404;80;21041;-59
2021/06/30 06:53:22;;;;;;;8.53;6.53;;;;;;;22.48;71.63;94194.56;1740201;80;21511;-56
2021/06/30 06:55:51;;;;;;;10.28;7.58;;;;;;;22.59;71.25;94191.57;1737329;80;21172;-64
2021/06/30 06:58:18;;;;;;;18.00;7.42;;;;;;;22.70;70.68;94184.33;1746489;80;21131;-62
2021/06/30 07:00:48;;;;;;;11.90;7.17;;;;;;;22.81;70.51;94185.53;1739060;80;21049;-66
2021/06/30 07:03:15;;;;;;;9.95;6.30;;;;;;;22.92;70.31;94181.75;1730868;80;21003;-60
2021/06/30 07:05:41;;;;;;;8.25;6.92;;;;;;;22.97;70.24;94185.84;1733672;80;20984;-60
2021/06/30 07:08:08;;;;;;;10.35;6.62;;;;;;;23.04;69.82;94189.39;1736213;80;21184;-62
2021/06/30 07:10:35;;;;;;;10.80;6.60;;;;;;;23.13;69.48;94184.78;1745047;80;22669;-62
2021/06/30 07:13:01;;;;;;;12.88;8.68;;;;;;;23.25;68.93;94183.27;1736831;80;21477;-64
2021/06/30 07:15:28;;;;;;;9.55;7.37;;;;;;;23.38;68.75;94186.02;1736713;80;21116;-62
2021/06/30 07:17:55;;;;;;;11.60;7.10;;;;;;;23.51;68.56;94182.41;1730899;80;21043;-66
2021/06/30 07:20:21;;;;;;;16.45;8.68;;;;;;;23.64;68.31;94192.21;1745099;80;21074;-59
2021/06/30 07:22:48;;;;;;;19.27;9.70;;;;;;;23.75;68.21;94180.73;1750790;80;21867;-58
2021/06/30 07:25:18;;;;;;;19.65;9.80;;;;;;;23.87;68.03;94180.59;1724070;80;21610;-64
2021/06/30 07:27:44;;;;;;;12.93;8.05;;;;;;;24.02;67.84;94176.63;1738377;79;21023;-58
2021/06/30 07:30:11;;;;;;;11.48;7.15;;;;;;;24.18;67.02;94177.53;1742130;80;21001;-59
2021/06/30 07:32:38;;;;;;;10.13;8.08;;;;;;;24.31;66.80;94169.77;1739069;80;21164;-60
2021/06/30 07:35:05;;;;;;;15.10;7.83;;;;;;;24.46;66.42;94171.30;1749533;79;21145;-64
2021/06/30 07:37:32;;;;;;;26.45;10.38;;;;;;;24.61;66.22;94165.05;1734529;80;20960;-60
2021/06/30 07:40:00;;;;;;;16.00;8.58;;;;;;;24.77;65.71;94161.77;1724956;80;21522;-60
2021/06/30 07:42:27;;;;;;;22.67;8.03;;;;;;;24.92;65.67;94154.09;1727582;80;21168;-62
2021/06/30 07:44:54;;;;;;;17.05;8.28;;;;;;;25.03;65.77;94155.92;1727861;80;20979;-56
2021/06/30 07:47:21;;;;;;;21.10;8.65;;;;;;;25.18;65.56;94149.61;1738014;79;22397;-61
2021/06/30 07:49:48;;;;;;;12.95;9.25;;;;;;;25.30;65.15;94142.38;1744655;79;21084;-61
2021/06/30 07:52:14;;;;;;;20.10;10.68;;;;;;;25.42;64.82;94143.53;1737014;80;21041;-62
2021/06/30 07:54:42;;;;;;;22.85;10.63;;;;;;;25.53;65.40;94137.56;1747610;80;21145;-60
2021/06/30 07:57:09;;;;;;;26.33;10.75;;;;;;;25.66;64.90;94137.42;1737777;80;20997;-61
2021/06/30 07:59:36;;;;;;;22.73;12.53;;;;;;;25.77;64.53;94132.83;1740928;80;21751;-60
2021/06/30 08:02:03;;;;;;;15.10;10.50;;;;;;;25.88;64.41;94134.66;1756507;80;21133;-61
2021/06/30 08:04:30;;;;;;;17.90;11.57;;;;;;;25.98;64.06;94127.91;1742413;80;21018;-58
2021/06/30 08:06:56;;;;;;;15.90;10.18;;;;;;;26.11;64.06;94129.81;1742429;80;21172;-58
2021/06/30 08:09:23;;;;;;;10.93;7.95;;;;;;;26.25;63.57;94126.88;1728417;80;22274;-57
2021/06/30 08:11:52;;;;;;;9.73;7.22;;;;;;;26.40;63.14;94126.88;1733184;80;20989;-59
2021/06/30 08:14:18;;;;;;;9.88;7.35;;;;;;;26.59;62.92;94114.57;1736202;79;20961;-59
2021/06/30 08:16:46;;;;;;;12.03;6.80;;;;;;;26.76;62.60;94119.73;1731682;80;21037;-56
2021/06/30 08:19:12;;;;;;;13.95;7.55;;;;;;;26.93;61.96;94106.41;1726805;80;21012;-61
2021/06/30 08:21:39;;;;;;;10.38;7.85;;;;;;;27.10;61.62;94104.52;1731314;80;21060;-60
2021/06/30 08:24:06;;;;;;;10.65;6.80;;;;;;;27.29;61.25;94098.40;1740689;80;21873;-62
2021/06/30 08:26:33;;;;;;;9.03;7.10;;;;;;;27.47;60.40;94094.36;1735153;80;21104;-60
2021/06/30 08:29:00;;;;;;;10.85;7.03;;;;;;;27.67;60.87;94096.89;1744014;80;21299;-60
2021/06/30 08:31:27;;;;;;;10.18;6.53;;;;;;;27.85;61.28;94087.84;1744096;80;21107;-58
2021/06/30 08:33:54;;;;;;;11.75;7.28;;;;;;;28.03;60.71;94091.59;1716719;80;21175;-58
2021/06/30 08:36:22;;;;;;;10.65;7.20;;;;;;;28.16;60.34;94083.55;1748985;80;21092;-60
2021/06/30 08:38:49;;;;;;;12.15;7.17;;;;;;;28.32;59.45;94084.20;1753352;79;21529;-59
2021/06/30 08:41:17;;;;;;;17.23;7.87;;;;;;;28.47;59.85;94089.08;1741927;80;21036;-61
2021/06/30 08:43:46;;;;;;;15.00;10.82;;;;;;;28.63;58.99;94086.20;1729066;80;21030;-61
2021/06/30 08:46:18;;;;;;;14.68;8.78;;;;;;;28.81;58.15;94086.95;1735067;80;22194;-58
2021/06/30 08:48:45;;;;;;;11.57;9.80;;;;;;;28.95;56.61;94086.73;1732703;79;21911;-60
2021/06/30 08:51:14;;;;;;;10.53;9.35;;;;;;;29.09;54.17;94087.88;1752487;79;21045;-58
2021/06/30 08:53:41;;;;;;;13.13;9.75;;;;;;;29.24;51.40;94082.80;1739049;80;21151;-59
2021/06/30 08:56:09;;;;;;;15.28;10.15;;;;;;;29.35;50.58;94090.77;1727695;80;21073;-60
2021/06/30 08:58:37;;;;;;;11.38;9.78;;;;;;;29.47;50.30;94090.38;1739039;80;20922;-61
2021/06/30 09:01:04;;;;;;;13.70;10.70;;;;;;;29.61;51.31;94090.09;1721011;80;21161;-60
2021/06/30 09:03:31;;;;;;;15.78;11.70;;;;;;;29.74;50.59;94088.97;1745709;80;21569;-60
2021/06/30 09:06:11;;;;;;;16.20;11.43;;;;;;;29.86;49.92;94084.27;1740905;80;21090;-59
2021/06/30 09:08:53;;;;;;;17.80;12.20;;;;;;;29.99;48.62;94076.86;1744944;80;21010;-62
2021/06/30 09:11:22;;;;;;;14.73;10.65;;;;;;;30.11;47.88;94073.59;1744224;80;20954;-59
2021/06/30 09:14:08;;;;;;;12.90;10.25;;;;;;;30.29;49.41;94069.32;1730175;80;21794;-60
2021/06/30 09:17:09;;;;;;;12.78;10.75;;;;;;;30.43;50.09;94061.13;1729526;80;21034;-61
2021/06/30 09:20:05;;;;;;;11.85;10.03;;;;;;;30.60;50.81;94051.12;1740306;80;20986;-61
2021/06/30 09:22:51;;;;;;;13.32;9.43;;;;;;;30.79;49.60;94055.41;1745596;80;20978;-60
2021/06/30 09:25:27;;;;;;;12.95;9.45;;;;;;;30.89;46.94;94055.48;1721722;80;21619;-60
2021/06/30 09:27:54;;;;;;;14.87;8.78;;;;;;;31.01;46.70;94057.82;1754015;80;21075;-58
2021/06/30 09:30:21;;;;;;;9.25;8.33;;;;;;;31.13;45.62;94050.23;1743383;80;21074;-60
2021/06/30 09:32:56;;;;;;;12.85;8.98;;;;;;;31.27;44.48;94042.72;1757419;79;21122;-59
2021/06/30 09:35:33;;;;;;;17.10;9.25;;;;;;;31.34;44.28;94028.28;1738926;80;21643;-60
2021/06/30 09:38:06;;;;;;;11.85;9.00;;;;;;;31.47;46.87;94022.89;1716203;80;22303;-59
2021/06/30 09:40:43;;;;;;;11.63;9.03;;;;;;;31.60;46.52;94033.77;1730930;80;21143;-56
2021/06/30 09:43:32;;;;;;;12.80;8.68;;;;;;;31.58;46.43;94045.00;1749262;80;22165;-61
2021/06/30 09:46:05;;;;;;;16.37;9.80;;;;;;;31.43;46.03;94058.12;1701812;81;21133;-61
2021/06/30 09:48:35;;;;;;;18.80;11.93;;;;;;;31.18;45.08;94070.50;1708278;82;21037;-61
2021/06/30 09:51:03;;;;;;;28.10;15.55;;;;;;;30.93;44.77;94071.44;1719447;82;22009;-61
2021/06/30 09:53:37;;;;;;;19.00;10.90;;;;;;;30.69;45.42;94058.23;1670910;83;21328;-60
2021/06/30 09:56:33;;;;;;;21.75;13.18;;;;;;;30.44;44.28;94066.23;1742294;80;20987;-57
2021/06/30 09:59:16;;;;;;;61.92;16.17;;;;;;;30.16;43.79;94061.88;1750735;80;21528;-61
2021/06/30 10:01:54;;;;;;;26.50;8.80;;;;;;;29.78;43.80;94104.23;1738200;80;21948;-61
2021/06/30 10:04:42;;;;;;;17.23;7.85;;;;;;;28.86;41.79;94115.03;1746986;80;21109;-61
2021/06/30 10:07:13;;;;;;;22.60;8.10;;;;;;;27.83;44.79;94105.40;1718973;80;21183;-59
2021/06/30 10:09:50;;;;;;;15.80;7.90;;;;;;;26.85;46.88;94134.66;1745888;80;21577;-63
2021/06/30 10:12:18;;;;;;;22.87;9.38;;;;;;;26.16;48.50;94104.23;1737393;80;21079;-59
2021/06/30 10:14:46;;;;;;;14.63;7.05;;;;;;;25.73;49.62;94095.81;1726667;80;21510;-61
2021/06/30 10:17:14;;;;;;;12.43;6.97;;;;;;;25.58;50.83;94093.73;1734925;80;20936;-61
2021/06/30 10:19:42;;;;;;;18.02;7.50;;;;;;;25.46;51.72;94101.69;1747136;80;21733;-61
2021/06/30 10:22:10;;;;;;;9.60;6.17;;;;;;;25.37;52.60;94102.98;1737045;80;21063;-60
2021/06/30 10:24:37;;;;;;;13.03;6.83;;;;;;;25.34;53.20;94090.66;1736174;80;21170;-59
2021/06/30 10:27:05;;;;;;;15.20;7.22;;;;;;;25.32;53.00;94084.16;1757423;80;21053;-59
2021/06/30 10:29:36;;;;;;;11.95;7.42;;;;;;;25.36;52.95;94091.61;1749725;80;21071;-60
2021/06/30 10:32:09;;;;;;;19.90;8.88;;;;;;;25.39;53.08;94094.72;1743950;80;21256;-60
2021/06/30 10:34:41;;;;;;;23.12;9.58;;;;;;;25.45;53.29;94096.70;1746281;80;21016;-61
2021/06/30 10:37:22;;;;;;;24.15;8.70;;;;;;;25.48;53.19;94097.65;1744268;80;21096;-60
2021/06/30 10:39:56;;;;;;;16.75;8.53;;;;;;;25.51;53.23;94107.80;1739885;80;20986;-60
2021/06/30 10:42:42;;;;;;;20.20;8.35;;;;;;;25.58;53.41;94096.55;1750479;80;21077;-61
2021/06/30 10:45:21;;;;;;;10.68;7.30;;;;;;;25.67;53.72;94093.84;1741859;80;21127;-62
2021/06/30 10:48:04;;;;;;;13.58;7.25;;;;;;;25.75;53.20;94097.41;1767750;79;21081;-58
2021/06/30 10:50:43;;;;;;;12.35;7.65;;;;;;;25.80;53.17;94096.47;1751227;80;21048;-60
2021/06/30 10:53:22;;;;;;;16.42;7.47;;;;;;;25.91;52.98;94101.78;1735296;82;21116;-61
2021/06/30 10:55:51;;;;;;;22.17;9.90;;;;;;;26.09;52.70;94100.76;1720479;81;21133;-60
2021/06/30 10:58:24;;;;;;;22.87;9.70;;;;;;;26.33;52.76;94107.23;1723744;81;21136;-59
2021/06/30 11:01:02;;;;;;;17.62;9.50;;;;;;;26.58;53.26;94109.60;1734597;81;21075;-60
2021/06/30 11:03:48;;;;;;;20.45;8.93;;;;;;;26.82;52.67;94093.45;1746422;80;21061;-60
2021/06/30 11:06:26;;;;;;;20.65;10.48;;;;;;;27.06;52.61;94087.83;1724393;80;21078;-61
2021/06/30 11:09:05;;;;;;;15.32;8.78;;;;;;;27.35;52.57;94084.80;1741601;79;21206;-61
2021/06/30 11:11:38;;;;;;;18.07;9.10;;;;;;;27.61;52.86;94077.97;1739607;80;22276;-61
2021/06/30 11:14:12;;;;;;;20.05;8.33;;;;;;;27.88;52.51;94076.78;1736876;80;21327;-58
2021/06/30 11:16:49;;;;;;;25.85;9.68;;;;;;;28.04;50.35;94079.68;1730897;81;21983;-60
2021/06/30 11:19:23;;;;;;;21.82;7.60;;;;;;;28.07;50.12;94077.78;1731988;80;20959;-61
2021/06/30 11:21:57;;;;;;;16.25;7.33;;;;;;;28.07;49.76;94086.27;1727501;80;22293;-57
2021/06/30 11:24:43;;;;;;;27.60;16.00;;;;;;;28.06;49.90;94084.77;1733466;80;21136;-59
2021/06/30 11:27:26;;;;;;;20.75;8.05;;;;;;;28.09;48.73;94079.37;1735957;80;21054;-65
2021/06/30 11:30:03;;;;;;;18.05;6.70;;;;;;;28.16;48.19;94084.97;1738366;80;20999;-63
2021/06/30 11:32:39;;;;;;;16.75;6.62;;;;;;;28.31;48.52;94091.19;1735781;80;21780;-66